createdAt,value
2018-05-17T00:01:29.329Z,23.02
2018-05-17T00:03:55.301Z,23.03
2018-05-17T00:06:21.283Z,23.02
2018-05-17T00:08:47.268Z,23.03
2018-05-17T00:11:13.255Z,23.02
2018-05-17T00:13:39.236Z,23.02
2018-05-17T00:16:05.221Z,23.02
2018-05-17T00:18:31.199Z,23.02
2018-05-17T00:20:57.178Z,23.02
2018-05-17T00:23:23.163Z,23.02
2018-05-17T00:25:49.151Z,23.02
2018-05-17T00:28:15.130Z,23.01
2018-05-17T00:30:41.124Z,23.01
2018-05-17T00:33:07.115Z,23.01
2018-05-17T00:35:33.091Z,23.02
2018-05-17T00:37:59.092Z,23.01
2018-05-17T00:40:25.070Z,23.01
2018-05-17T00:42:51.078Z,23.01
2018-05-17T00:45:17.058Z,23.01
2018-05-17T00:47:43.035Z,23.01
2018-05-17T00:50:09.020Z,23.01
2018-05-17T00:52:35.007Z,23.00
2018-05-17T00:55:00.993Z,23.00
2018-05-17T00:57:26.981Z,23.00
2018-05-17T00:59:52.972Z,23.00
2018-05-17T01:02:18.951Z,23.00
2018-05-17T01:04:44.976Z,23.00
2018-05-17T01:07:10.935Z,23.00
2018-05-17T01:09:36.933Z,23.00
2018-05-17T01:12:02.910Z,23.00
2018-05-17T01:14:28.905Z,23.00
2018-05-17T01:16:54.889Z,23.00
2018-05-17T01:19:20.867Z,23.00
2018-05-17T01:21:46.856Z,23.00
2018-05-17T01:24:12.830Z,23.01
2018-05-17T01:26:38.830Z,23.00
2018-05-17T01:29:04.819Z,22.99
2018-05-17T01:31:30.791Z,23.00
2018-05-17T01:33:56.781Z,22.99
2018-05-17T01:36:22.775Z,22.99
2018-05-17T01:38:48.764Z,23.00
2018-05-17T01:41:14.754Z,23.00
2018-05-17T01:43:40.747Z,22.99
2018-05-17T01:46:06.739Z,22.99
2018-05-17T01:48:32.723Z,22.99
2018-05-17T01:50:58.740Z,22.99
2018-05-17T01:53:24.720Z,22.99
2018-05-17T01:55:50.710Z,22.99
2018-05-17T01:58:16.700Z,22.99
2018-05-17T02:00:42.744Z,22.99
2018-05-17T02:03:08.725Z,22.99
2018-05-17T02:05:34.707Z,22.99
2018-05-17T02:08:00.691Z,22.99
2018-05-17T02:10:26.687Z,22.99
2018-05-17T02:12:52.668Z,22.99
2018-05-17T02:15:18.659Z,22.99
2018-05-17T02:17:44.640Z,22.98
2018-05-17T02:20:10.624Z,22.99
2018-05-17T02:22:36.643Z,22.98
2018-05-17T02:25:02.631Z,22.98
2018-05-17T02:27:28.625Z,22.98
2018-05-17T02:29:54.608Z,22.98
2018-05-17T02:32:20.629Z,22.98
2018-05-17T02:34:46.608Z,22.98
2018-05-17T02:37:12.592Z,22.98
2018-05-17T02:39:38.578Z,22.99
2018-05-17T02:42:04.573Z,22.98
2018-05-17T02:44:30.576Z,22.98
2018-05-17T02:46:56.561Z,22.98
2018-05-17T02:49:22.549Z,22.97
2018-05-17T02:51:48.549Z,22.97
2018-05-17T02:54:14.527Z,22.97
2018-05-17T02:56:40.506Z,22.97
2018-05-17T02:59:06.503Z,22.97
2018-05-17T03:01:32.498Z,22.98
2018-05-17T03:03:58.495Z,22.97
2018-05-17T03:06:24.483Z,22.97
2018-05-17T03:08:50.464Z,22.97
2018-05-17T03:11:16.460Z,22.97
2018-05-17T03:13:42.434Z,22.97
2018-05-17T03:16:08.429Z,22.97
2018-05-17T03:18:34.408Z,22.96
2018-05-17T03:21:00.404Z,22.96
2018-05-17T03:23:26.387Z,22.97
2018-05-17T03:25:52.397Z,22.97
2018-05-17T03:28:18.378Z,22.97
2018-05-17T03:30:44.359Z,22.97
2018-05-17T03:33:10.345Z,22.97
2018-05-17T03:35:36.340Z,22.97
2018-05-17T03:38:02.323Z,22.97
2018-05-17T03:40:28.313Z,22.98
2018-05-17T03:42:54.301Z,22.97
2018-05-17T03:45:20.294Z,22.97
2018-05-17T03:47:46.274Z,22.97
2018-05-17T03:50:12.258Z,22.97
2018-05-17T03:52:38.249Z,22.96
2018-05-17T03:55:04.256Z,22.96
2018-05-17T03:57:30.268Z,22.96
2018-05-17T03:59:56.257Z,22.96
2018-05-17T04:02:22.265Z,22.96
2018-05-17T04:04:48.257Z,22.96
2018-05-17T04:07:14.256Z,22.96
2018-05-17T04:09:40.245Z,22.96
2018-05-17T04:12:06.246Z,22.96
2018-05-17T04:14:32.225Z,22.96
2018-05-17T04:16:58.233Z,22.96
2018-05-17T04:19:24.256Z,22.96
2018-05-17T04:21:50.208Z,22.96
2018-05-17T04:24:16.191Z,22.96
2018-05-17T04:26:42.185Z,22.95
2018-05-17T04:29:08.195Z,22.96
2018-05-17T04:31:34.157Z,22.96
2018-05-17T04:34:00.143Z,22.97
2018-05-17T04:36:26.132Z,22.97
2018-05-17T04:38:52.115Z,22.98
2018-05-17T04:41:18.102Z,22.98
2018-05-17T04:43:44.109Z,22.98
2018-05-17T04:46:10.138Z,22.98
2018-05-17T04:48:36.154Z,22.99
2018-05-17T04:51:02.139Z,23.00
2018-05-17T04:53:28.127Z,23.00
2018-05-17T04:55:54.198Z,23.01
2018-05-17T04:58:20.208Z,23.00
2018-05-17T05:00:46.224Z,23.01
2018-05-17T05:03:12.215Z,23.02
2018-05-17T05:05:38.257Z,23.04
2018-05-17T05:08:04.242Z,23.04
2018-05-17T05:10:30.220Z,23.04
2018-05-17T05:12:56.210Z,23.04
2018-05-17T05:15:22.190Z,23.04
2018-05-17T05:17:48.317Z,23.04
2018-05-17T05:20:14.364Z,23.04
2018-05-17T05:22:40.342Z,23.04
2018-05-17T05:25:06.385Z,23.04
2018-05-17T05:27:32.367Z,23.04
2018-05-17T05:29:58.365Z,23.05
2018-05-17T05:32:24.359Z,23.04
2018-05-17T05:34:50.346Z,23.04
2018-05-17T05:37:16.327Z,23.03
2018-05-17T05:39:42.316Z,23.02
2018-05-17T05:42:08.304Z,23.02
2018-05-17T05:44:34.293Z,23.02
2018-05-17T05:47:00.268Z,23.01
2018-05-17T05:49:26.319Z,23.01
2018-05-17T05:51:53.501Z,23.01
2018-05-17T05:54:18.292Z,23.00
2018-05-17T05:56:44.281Z,23.01
2018-05-17T05:59:10.260Z,23.00
2018-05-17T06:01:36.249Z,23.00
2018-05-17T06:04:02.271Z,23.00
2018-05-17T06:06:28.250Z,23.00
2018-05-17T06:08:54.233Z,23.00
2018-05-17T06:11:20.262Z,23.01
2018-05-17T06:13:46.248Z,23.01
2018-05-17T06:16:12.233Z,23.01
2018-05-17T06:18:38.278Z,23.02
2018-05-17T06:21:04.314Z,23.02
2018-05-17T06:23:30.376Z,23.02
2018-05-17T06:25:56.374Z,23.02
2018-05-17T06:28:22.360Z,23.01
2018-05-17T06:30:48.351Z,23.01
2018-05-17T06:33:14.383Z,23.01
2018-05-17T06:35:40.375Z,23.01
2018-05-17T06:38:06.461Z,23.01
2018-05-17T06:40:32.452Z,23.01
2018-05-17T06:42:58.507Z,23.01
2018-05-17T06:45:24.485Z,23.01
2018-05-17T06:47:50.467Z,23.01
2018-05-17T06:50:16.456Z,23.00
2018-05-17T06:52:42.434Z,22.99
2018-05-17T06:55:08.421Z,22.99
2018-05-17T06:57:34.407Z,23.00
2018-05-17T07:00:00.387Z,23.00
2018-05-17T07:02:26.363Z,22.99
2018-05-17T07:04:52.360Z,23.01
2018-05-17T07:07:18.343Z,23.02
2018-05-17T07:09:44.357Z,23.03
2018-05-17T07:12:10.375Z,23.04
2018-05-17T07:14:36.405Z,23.04
2018-05-17T07:17:02.408Z,23.04
2018-05-17T07:19:28.430Z,23.05
2018-05-17T07:21:54.431Z,23.05
2018-05-17T07:24:20.425Z,23.06
2018-05-17T07:26:46.456Z,23.07
2018-05-17T07:29:12.459Z,23.08
2018-05-17T07:31:38.476Z,23.09
2018-05-17T07:34:04.462Z,23.10
2018-05-17T07:36:30.466Z,23.10
2018-05-17T07:38:56.442Z,23.10
2018-05-17T07:41:22.463Z,23.10
2018-05-17T07:43:48.455Z,23.12
2018-05-17T07:46:14.434Z,23.10
2018-05-17T07:48:40.449Z,23.12
2018-05-17T07:51:06.423Z,23.13
2018-05-17T07:53:32.406Z,23.12
2018-05-17T07:55:58.384Z,23.13
2018-05-17T07:58:24.381Z,23.14
2018-05-17T08:00:50.368Z,23.13
2018-05-17T08:03:16.348Z,23.14
2018-05-17T08:05:42.327Z,23.14
2018-05-17T08:08:08.314Z,23.15
2018-05-17T08:10:34.304Z,23.15
2018-05-17T08:13:00.294Z,23.15
2018-05-17T08:15:26.310Z,23.15
2018-05-17T08:17:52.281Z,23.15
2018-05-17T08:20:18.343Z,23.15
2018-05-17T08:22:44.300Z,23.15
2018-05-17T08:25:10.289Z,23.15
2018-05-17T08:27:36.297Z,23.16
2018-05-17T08:30:02.314Z,23.15
2018-05-17T08:32:28.304Z,23.15
2018-05-17T08:34:54.343Z,23.14
2018-05-17T08:37:20.293Z,23.13
2018-05-17T08:39:46.350Z,23.13
2018-05-17T08:42:12.382Z,23.15
2018-05-17T08:44:38.387Z,23.14
2018-05-17T08:47:04.361Z,23.13
2018-05-17T08:49:30.349Z,23.13
2018-05-17T08:51:56.334Z,23.13
2018-05-17T08:54:22.357Z,23.14
2018-05-17T08:56:48.339Z,23.18
2018-05-17T08:59:14.377Z,23.20
2018-05-17T09:01:40.366Z,23.23
2018-05-17T09:04:06.371Z,23.25
2018-05-17T09:06:32.391Z,23.24
2018-05-17T09:08:58.337Z,23.27
2018-05-17T09:11:24.324Z,23.27
2018-05-17T09:13:50.309Z,23.30
2018-05-17T09:16:16.388Z,23.30
2018-05-17T09:18:42.333Z,23.29
2018-05-17T09:21:08.331Z,23.29
2018-05-17T09:23:34.327Z,23.31
2018-05-17T09:26:00.322Z,23.29
2018-05-17T09:28:26.315Z,23.32
2018-05-17T09:30:52.312Z,23.32
2018-05-17T09:33:18.294Z,23.32
2018-05-17T09:35:44.362Z,23.34
2018-05-17T09:38:10.308Z,23.34
2018-05-17T09:40:36.281Z,23.34
2018-05-17T09:43:02.262Z,23.34
2018-05-17T09:45:28.276Z,23.34
2018-05-17T09:47:54.285Z,23.35
2018-05-17T09:50:20.261Z,23.35
2018-05-17T09:52:46.269Z,23.35
2018-05-17T09:55:12.302Z,23.34
2018-05-17T09:57:38.337Z,23.33
2018-05-17T10:00:04.343Z,23.31
2018-05-17T10:02:30.330Z,23.31
2018-05-17T10:04:56.361Z,23.32
2018-05-17T10:07:22.383Z,23.30
2018-05-17T10:09:48.403Z,23.28
2018-05-17T10:12:14.405Z,23.28
2018-05-17T10:14:40.488Z,23.27
2018-05-17T10:17:06.412Z,23.26
2018-05-17T10:19:32.420Z,23.26
2018-05-17T10:21:58.416Z,23.25
2018-05-17T10:24:24.400Z,23.25
2018-05-17T10:26:50.398Z,23.25
2018-05-17T10:29:16.393Z,23.25
2018-05-17T10:31:42.388Z,23.25
2018-05-17T10:34:08.376Z,23.25
2018-05-17T10:36:34.395Z,23.24
2018-05-17T10:39:00.383Z,23.24
2018-05-17T10:41:26.388Z,23.24
2018-05-17T10:43:52.389Z,23.23
2018-05-17T10:46:18.362Z,23.23
2018-05-17T10:48:44.357Z,23.24
2018-05-17T10:51:10.333Z,23.23
2018-05-17T10:53:36.353Z,23.23
2018-05-17T10:56:02.350Z,23.24
2018-05-17T10:58:28.334Z,23.24
2018-05-17T11:00:54.321Z,23.23
2018-05-17T11:03:20.318Z,23.24
2018-05-17T11:05:46.307Z,23.24
2018-05-17T11:08:12.330Z,23.23
2018-05-17T11:10:38.314Z,23.23
2018-05-17T11:13:04.312Z,23.23
2018-05-17T11:15:30.301Z,23.26
2018-05-17T11:17:56.477Z,23.27
2018-05-17T11:20:22.464Z,23.27
2018-05-17T11:22:49.187Z,23.27
2018-05-17T11:25:16.036Z,23.27
2018-05-17T11:27:42.027Z,23.27
2018-05-17T11:30:08.043Z,23.25
2018-05-17T11:32:34.160Z,23.26
2018-05-17T11:35:00.138Z,23.25
2018-05-17T11:37:26.095Z,23.25
2018-05-17T11:39:52.085Z,23.25
2018-05-17T11:42:18.082Z,23.26
2018-05-17T11:44:44.092Z,23.27
2018-05-17T11:47:10.132Z,23.30
2018-05-17T11:49:36.106Z,23.31
2018-05-17T11:52:02.112Z,23.31
2018-05-17T11:54:28.091Z,23.29
2018-05-17T11:56:54.073Z,23.30
2018-05-17T11:59:20.069Z,23.30
2018-05-17T12:01:46.061Z,23.30
2018-05-17T12:04:12.049Z,23.29
2018-05-17T12:06:38.026Z,23.27
2018-05-17T12:09:04.058Z,23.26
2018-05-17T12:11:30.035Z,23.26
2018-05-17T12:13:56.040Z,23.27
2018-05-17T12:16:22.029Z,23.28
2018-05-17T12:18:48.036Z,23.26
2018-05-17T12:21:14.002Z,23.27
2018-05-17T12:23:40.229Z,23.27
2018-05-17T12:26:06.195Z,23.27
2018-05-17T12:28:32.182Z,23.26
2018-05-17T12:30:58.163Z,23.26
2018-05-17T12:33:24.162Z,23.27
2018-05-17T12:35:50.175Z,23.27
2018-05-17T12:38:16.181Z,23.25
2018-05-17T12:40:42.170Z,23.26
2018-05-17T12:43:08.158Z,23.25
2018-05-17T12:45:34.190Z,23.26
2018-05-17T12:48:00.165Z,23.25
2018-05-17T12:50:26.116Z,23.25
2018-05-17T12:52:52.109Z,23.26
2018-05-17T12:55:18.094Z,23.27
2018-05-17T12:57:44.084Z,23.26
2018-05-17T13:00:10.070Z,23.26
2018-05-17T13:02:36.062Z,23.26
2018-05-17T13:05:02.098Z,23.26
2018-05-17T13:07:28.126Z,23.27
2018-05-17T13:09:54.420Z,23.26
2018-05-17T13:12:20.403Z,23.28
2018-05-17T13:14:46.428Z,23.28
2018-05-17T13:17:12.408Z,23.27
2018-05-17T13:19:38.426Z,23.26
2018-05-17T13:22:04.403Z,23.29
2018-05-17T13:24:30.404Z,23.32
2018-05-17T13:26:56.572Z,23.33
2018-05-17T13:29:22.685Z,23.35
2018-05-17T13:31:48.639Z,23.37
2018-05-17T13:34:14.643Z,23.36
2018-05-17T13:36:40.727Z,23.36
2018-05-17T13:39:06.756Z,23.36
2018-05-17T13:41:32.753Z,23.36
2018-05-17T13:43:58.757Z,23.35
2018-05-17T13:46:24.725Z,23.36
2018-05-17T13:48:50.713Z,23.36
2018-05-17T13:51:16.705Z,23.38
2018-05-17T13:53:42.706Z,23.38
2018-05-17T13:56:08.700Z,23.39
2018-05-17T13:58:34.690Z,23.39
2018-05-17T14:01:00.684Z,23.39
2018-05-17T14:03:26.689Z,23.39
2018-05-17T14:05:52.698Z,23.39
2018-05-17T14:08:18.667Z,23.40
2018-05-17T14:10:44.664Z,23.41
2018-05-17T14:13:10.656Z,23.41
2018-05-17T14:15:36.720Z,23.41
2018-05-17T14:18:02.659Z,23.42
2018-05-17T14:20:28.666Z,23.42
2018-05-17T14:22:54.674Z,23.42
2018-05-17T14:25:20.721Z,23.43
2018-05-17T14:27:46.656Z,23.45
2018-05-17T14:30:12.686Z,23.43
2018-05-17T14:32:38.670Z,23.44
2018-05-17T14:35:04.651Z,23.44
2018-05-17T14:37:30.642Z,23.45
2018-05-17T14:39:56.624Z,23.45
2018-05-17T14:42:22.633Z,23.45
2018-05-17T14:44:48.623Z,23.45
2018-05-17T14:47:14.628Z,23.45
2018-05-17T14:49:40.617Z,23.45
2018-05-17T14:52:06.634Z,23.45
2018-05-17T14:54:32.582Z,23.46
2018-05-17T14:56:58.724Z,23.47
2018-05-17T14:59:24.703Z,23.50
2018-05-17T15:01:50.694Z,23.51
2018-05-17T15:04:16.722Z,23.54
2018-05-17T15:06:42.713Z,23.54
2018-05-17T15:09:08.662Z,23.55
2018-05-17T15:11:34.652Z,23.57
2018-05-17T15:14:00.724Z,23.58
2018-05-17T15:16:26.675Z,23.59
2018-05-17T15:18:52.654Z,23.60
2018-05-17T15:21:18.638Z,23.61
2018-05-17T15:23:45.450Z,23.63
2018-05-17T15:26:12.061Z,23.64
2018-05-17T15:28:38.596Z,23.64
2018-05-17T15:31:05.036Z,23.66
2018-05-17T15:33:31.363Z,23.66
2018-05-17T15:35:57.366Z,23.66
2018-05-17T15:38:23.439Z,23.68
2018-05-17T15:40:49.445Z,23.69
2018-05-17T15:43:15.435Z,23.71
2018-05-17T15:45:41.426Z,23.71
2018-05-17T15:48:07.481Z,23.71
2018-05-17T15:50:33.467Z,23.74
2018-05-17T15:52:59.476Z,23.75
2018-05-17T15:55:25.453Z,23.77
2018-05-17T15:57:51.470Z,23.78
2018-05-17T16:00:17.474Z,23.75
2018-05-17T16:02:43.461Z,23.77
2018-05-17T16:05:09.483Z,23.79
2018-05-17T16:07:35.466Z,23.80
2018-05-17T16:10:01.470Z,23.82
2018-05-17T16:12:27.610Z,23.81
2018-05-17T16:14:53.716Z,23.83
2018-05-17T16:17:19.591Z,23.82
2018-05-17T16:19:45.625Z,23.84
2018-05-17T16:22:11.619Z,23.85
2018-05-17T16:24:37.625Z,23.84
2018-05-17T16:27:03.626Z,23.83
2018-05-17T16:29:29.652Z,23.84
2018-05-17T16:31:55.659Z,23.84
2018-05-17T16:34:21.641Z,23.82
2018-05-17T16:36:47.665Z,23.80
2018-05-17T16:39:13.661Z,23.80
2018-05-17T16:41:39.658Z,23.79
2018-05-17T16:44:05.933Z,23.78
2018-05-17T16:46:31.975Z,23.79
2018-05-17T16:48:57.977Z,23.81
2018-05-17T16:51:23.969Z,23.81
2018-05-17T16:53:50.003Z,23.79
2018-05-17T16:56:16.257Z,23.78
2018-05-17T16:58:42.341Z,23.78
2018-05-17T17:01:08.248Z,23.75
2018-05-17T17:03:34.272Z,23.75
2018-05-17T17:06:00.250Z,23.75
2018-05-17T17:08:26.701Z,23.76
2018-05-17T17:10:52.723Z,23.76
2018-05-17T17:13:18.700Z,23.75
2018-05-17T17:15:56.564Z,23.75
2018-05-17T17:18:22.575Z,23.73
2018-05-17T17:20:48.584Z,23.72
2018-05-17T17:23:14.582Z,23.75
2018-05-17T17:25:40.579Z,23.76
2018-05-17T17:28:06.647Z,23.75
2018-05-17T17:30:32.701Z,23.75
2018-05-17T17:32:58.702Z,23.76
2018-05-17T17:35:24.692Z,23.73
2018-05-17T17:37:50.713Z,23.73
2018-05-17T17:40:16.723Z,23.72
2018-05-17T17:42:42.772Z,23.71
2018-05-17T17:45:08.766Z,23.70
2018-05-17T17:47:34.795Z,23.71
2018-05-17T17:50:00.904Z,23.71
2018-05-17T17:52:26.897Z,23.71
2018-05-17T17:54:52.961Z,23.72
2018-05-17T17:57:19.549Z,23.71
2018-05-17T17:59:45.563Z,23.70
2018-05-17T18:02:11.571Z,23.72
2018-05-17T18:04:37.756Z,23.71
2018-05-17T18:07:03.984Z,23.71
2018-05-17T18:09:30.224Z,23.71
2018-05-17T18:11:56.241Z,23.73
2018-05-17T18:14:22.270Z,23.71
2018-05-17T18:16:48.332Z,23.72
2018-05-17T18:19:14.362Z,23.72
2018-05-17T18:21:40.820Z,23.73
2018-05-17T18:24:06.945Z,23.72
2018-05-17T18:26:32.948Z,23.72
2018-05-17T18:28:59.242Z,23.70
2018-05-17T18:31:25.271Z,23.70
2018-05-17T18:33:51.297Z,23.70
2018-05-17T18:36:17.368Z,23.71
2018-05-17T18:38:43.424Z,23.71
2018-05-17T18:41:09.421Z,23.69
2018-05-17T18:43:35.408Z,23.68
2018-05-17T18:46:01.396Z,23.68
2018-05-17T18:48:27.383Z,23.65
2018-05-17T18:50:53.377Z,23.65
2018-05-17T18:53:19.411Z,23.64
2018-05-17T18:55:49.604Z,23.65
2018-05-17T18:58:15.935Z,23.63
2018-05-17T19:00:48.816Z,23.62
2018-05-17T19:03:14.819Z,23.62
2018-05-17T19:05:40.840Z,23.62
2018-05-17T19:08:06.903Z,23.60
2018-05-17T19:10:32.938Z,23.60
2018-05-17T19:12:58.981Z,23.58
2018-05-17T19:15:25.001Z,23.57
2018-05-17T19:17:51.008Z,23.57
2018-05-17T19:20:17.035Z,23.57
2018-05-17T19:22:46.698Z,23.58
2018-05-17T19:25:13.616Z,23.55
2018-05-17T19:27:39.596Z,23.56
2018-05-17T19:30:05.760Z,23.56
2018-05-17T19:32:32.149Z,23.56
2018-05-17T19:34:58.730Z,23.56
2018-05-17T19:37:25.793Z,23.56
2018-05-17T19:39:52.449Z,23.55
2018-05-17T19:42:18.860Z,23.55
2018-05-17T19:44:45.595Z,23.54
2018-05-17T19:47:12.409Z,23.54
2018-05-17T19:49:39.323Z,23.54
2018-05-17T19:52:06.024Z,23.54
2018-05-17T19:54:32.766Z,23.53
2018-05-17T19:56:59.407Z,23.54
2018-05-17T19:59:26.283Z,23.54
2018-05-17T20:01:52.787Z,23.54
2018-05-17T20:04:19.420Z,23.54
2018-05-17T20:06:45.407Z,23.54
2018-05-17T20:09:11.392Z,23.55
2018-05-17T20:11:37.420Z,23.55
2018-05-17T20:14:03.424Z,23.54
2018-05-17T20:16:29.419Z,23.54
2018-05-17T20:18:55.425Z,23.54
2018-05-17T20:21:21.413Z,23.54
2018-05-17T20:23:47.411Z,23.54
2018-05-17T20:26:13.446Z,23.54
2018-05-17T20:28:39.431Z,23.53
2018-05-17T20:31:05.450Z,23.53
2018-05-17T20:33:31.453Z,23.53
2018-05-17T20:35:57.453Z,23.54
2018-05-17T20:38:23.485Z,23.54
2018-05-17T20:40:49.470Z,23.54
2018-05-17T20:43:15.450Z,23.54
2018-05-17T20:45:41.460Z,23.53
2018-05-17T20:48:07.512Z,23.53
2018-05-17T20:50:33.516Z,23.53
2018-05-17T20:52:59.517Z,23.53
2018-05-17T20:55:25.528Z,23.53
2018-05-17T20:57:51.513Z,23.53
2018-05-17T21:00:17.497Z,23.53
2018-05-17T21:02:43.479Z,23.54
2018-05-17T21:05:09.483Z,23.54
2018-05-17T21:07:35.473Z,23.54
2018-05-17T21:10:01.477Z,23.53
2018-05-17T21:12:27.472Z,23.53
2018-05-17T21:14:53.456Z,23.52
2018-05-17T21:17:19.704Z,23.51
2018-05-17T21:19:45.653Z,23.52
2018-05-17T21:22:11.637Z,23.51
2018-05-17T21:24:37.665Z,23.51
2018-05-17T21:27:03.653Z,23.50
2018-05-17T21:29:29.681Z,23.50
2018-05-17T21:31:55.668Z,23.50
2018-05-17T21:34:21.663Z,23.49
2018-05-17T21:36:47.654Z,23.47
2018-05-17T21:39:13.636Z,23.48
2018-05-17T21:41:39.628Z,23.47
2018-05-17T21:44:05.668Z,23.47
2018-05-17T21:46:31.648Z,23.47
2018-05-17T21:48:57.636Z,23.45
2018-05-17T21:51:23.668Z,23.45
2018-05-17T21:53:49.656Z,23.45
2018-05-17T21:56:15.662Z,23.45
2018-05-17T21:58:41.647Z,23.45
2018-05-17T22:01:07.641Z,23.44
2018-05-17T22:03:33.631Z,23.44
2018-05-17T22:05:59.672Z,23.43
2018-05-17T22:08:25.660Z,23.42
2018-05-17T22:10:51.647Z,23.43
2018-05-17T22:13:17.672Z,23.42
2018-05-17T22:15:43.643Z,23.42
2018-05-17T22:18:09.626Z,23.42
2018-05-17T22:20:35.638Z,23.41
2018-05-17T22:23:01.616Z,23.42
2018-05-17T22:25:27.599Z,23.42
2018-05-17T22:27:53.609Z,23.41
2018-05-17T22:30:19.588Z,23.41
2018-05-17T22:32:45.600Z,23.41
2018-05-17T22:35:11.594Z,23.40
2018-05-17T22:37:37.591Z,23.39
2018-05-17T22:40:03.579Z,23.39
2018-05-17T22:42:29.562Z,23.39
2018-05-17T22:44:55.546Z,23.38
2018-05-17T22:47:21.570Z,23.39
2018-05-17T22:49:47.505Z,23.38
2018-05-17T22:52:13.490Z,23.38
2018-05-17T22:54:39.476Z,23.37
2018-05-17T22:57:05.463Z,23.38
2018-05-17T22:59:31.461Z,23.37
2018-05-17T23:01:57.439Z,23.37
2018-05-17T23:04:23.422Z,23.36
2018-05-17T23:06:49.418Z,23.36
2018-05-17T23:09:15.400Z,23.37
2018-05-17T23:11:41.379Z,23.36
2018-05-17T23:14:07.360Z,23.36
2018-05-17T23:16:33.347Z,23.36
2018-05-17T23:18:59.336Z,23.35
2018-05-17T23:21:25.325Z,23.36
2018-05-17T23:23:51.301Z,23.35
2018-05-17T23:26:17.287Z,23.35
2018-05-17T23:28:43.275Z,23.35
2018-05-17T23:31:09.259Z,23.34
2018-05-17T23:33:35.247Z,23.34
2018-05-17T23:36:01.258Z,23.34
2018-05-17T23:38:27.278Z,23.34
2018-05-17T23:40:53.267Z,23.34
2018-05-17T23:43:19.272Z,23.34
2018-05-17T23:45:45.252Z,23.33
2018-05-17T23:48:11.228Z,23.33
2018-05-17T23:50:37.226Z,23.33
2018-05-17T23:53:03.212Z,23.34
2018-05-17T23:55:29.202Z,23.33
2018-05-17T23:57:55.187Z,23.33
